Welcome to Northern Hawkes Bay. New Zealand.
PWS Header
      nz Flag



Hit Counter


W3C Valid W3C Valid logo


    Wairoa

Select any of the Stations below to visit their websites.










Historic Data from Weather Underground
Select the location of interest below. Wairoa is the default. Please have patience, this Data is slow to load in.
Northern Hawkes Bay Historical Data
Daily Summary for March 7, 2017 Units:  Metric    English   Both
« Previous Day
Next Day »
Daily Weekly Monthly Yearly Custom
  High: Low: Average:
Temperature: 25.5 °C 13.6 °C 18.1 °C
Dew Point: 17.7 °C 11.2 °C 14.1 °C
Humidity: 99% 43% 80%
Wind Speed: 40.4km/h 0.0km/h 6.5km/h
Wind Gust: 52.6km/h - -
Wind- - WSW
Pressure: 1013.4 hPa 1007.3 hPa -
Precipitation: 14.5 mm    
Historical Graphs
 
 
Tabular Data for March 7, 2017
Time Temperature Dew Point Pressure Wind Wind Speed Wind Gust Humidity Rainfall Rate (Hourly) solar
00:01 15.5 °C 15.2 °C 1010.0 hPa North 3.5 km/h 7.2 km/h 98% 0.0 mm 0 W/m2
00:06 15.5 °C 15.2 °C 1010.0 hPa North 3.5 km/h 6.1 km/h 98% 0.0 mm 0 W/m2
00:11 15.5 °C 15.1 °C 1010.0 hPa NNW 3.5 km/h 6.1 km/h 97% 0.0 mm 0 W/m2
00:16 15.4 °C 14.9 °C 1010.0 hPa NW 2.6 km/h 6.1 km/h 97% 0.0 mm 0 W/m2
00:21 15.3 °C 14.8 °C 1010.0 hPa NW 3.5 km/h 6.1 km/h 97% 0.0 mm 0 W/m2
00:26 15.3 °C 14.8 °C 1010.0 hPa NW 3.5 km/h 6.1 km/h 97% 0.0 mm 0 W/m2
00:31 15.2 °C 14.7 °C 1010.0 hPa NNW 7.2 km/h 9.7 km/h 97% 0.0 mm 0 W/m2
00:36 15.2 °C 14.7 °C 1010.0 hPa NNW 2.6 km/h 9.7 km/h 97% 0.0 mm 0 W/m2
00:41 15.2 °C 14.7 °C 1010.0 hPa North 6.1 km/h 8.7 km/h 97% 0.0 mm 0 W/m2
00:46 15.2 °C 14.7 °C 1009.7 hPa NNW 2.6 km/h 7.2 km/h 97% 0.0 mm 0 W/m2
00:51 15.2 °C 14.7 °C 1009.7 hPa NNW 2.6 km/h 7.2 km/h 97% 0.0 mm 0 W/m2
00:56 15.2 °C 14.7 °C 1009.7 hPa North 2.6 km/h 9.7 km/h 97% 0.0 mm 0 W/m2
01:01 15.2 °C 14.7 °C 1009.7 hPa North 3.5 km/h 9.7 km/h 97% 0.0 mm 0 W/m2
01:06 15.2 °C 14.7 °C 1009.7 hPa NNW 3.5 km/h 7.2 km/h 97% 0.0 mm 0 W/m2
01:11 15.1 °C 14.6 °C 1010.0 hPa NNW 5.0 km/h 7.2 km/h 97% 0.0 mm 0 W/m2
01:16 15.0 °C 14.4 °C 1010.0 hPa NW 3.5 km/h 7.2 km/h 96% 0.0 mm 0 W/m2
01:21 15.0 °C 14.4 °C 1009.7 hPa NNW 3.5 km/h 8.7 km/h 96% 0.0 mm 0 W/m2
01:26 15.0 °C 14.4 °C 1009.7 hPa NNW 6.1 km/h 9.7 km/h 96% 0.0 mm 0 W/m2
01:31 15.0 °C 14.4 °C 1009.7 hPa NNW 3.5 km/h 9.7 km/h 96% 0.0 mm 0 W/m2
01:36 14.9 °C 14.4 °C 1009.7 hPa NW 7.2 km/h 8.7 km/h 97% 0.0 mm 0 W/m2
01:41 14.8 °C 14.3 °C 1009.7 hPa NNW 6.1 km/h 9.7 km/h 97% 0.0 mm 0 W/m2
01:46 14.8 °C 14.3 °C 1009.7 hPa NNW 5.0 km/h 9.7 km/h 97% 0.0 mm 0 W/m2
01:51 14.6 °C 14.3 °C 1009.7 hPa NNW 5.0 km/h 8.7 km/h 98% 0.0 mm 0 W/m2
01:56 14.5 °C 14.2 °C 1009.4 hPa NNW 5.0 km/h 8.7 km/h 98% 0.0 mm 0 W/m2
02:01 14.5 °C 14.2 °C 1009.4 hPa NNW 5.0 km/h 9.7 km/h 98% 0.0 mm 0 W/m2
02:06 14.5 °C 14.2 °C 1009.4 hPa NW 2.6 km/h 9.7 km/h 98% 0.0 mm 0 W/m2
02:11 14.3 °C 14.0 °C 1009.4 hPa NW 2.6 km/h 7.2 km/h 98% 0.0 mm 0 W/m2
02:16 14.2 °C 13.9 °C 1009.4 hPa NW 2.6 km/h 6.1 km/h 98% 0.0 mm 0 W/m2
02:21 14.2 °C 13.9 °C 1009.4 hPa NW 1.1 km/h 6.1 km/h 98% 0.0 mm 0 W/m2
02:26 14.0 °C 13.7 °C 1009.4 hPa NNW 3.5 km/h 6.1 km/h 98% 0.0 mm 0 W/m2
02:31 14.0 °C 13.7 °C 1009.4 hPa NNW 3.5 km/h 6.1 km/h 98% 0.0 mm 0 W/m2
02:36 14.0 °C 13.7 °C 1009.4 hPa NNW 2.6 km/h 6.1 km/h 98% 0.0 mm 0 W/m2
02:41 13.9 °C 13.8 °C 1009.0 hPa NW 1.1 km/h 7.2 km/h 99% 0.0 mm 0 W/m2
02:46 14.0 °C 13.8 °C 1009.0 hPa NW 3.5 km/h 8.7 km/h 99% 0.0 mm 0 W/m2
02:51 14.3 °C 14.2 °C 1009.0 hPa NNW 3.5 km/h 8.7 km/h 99% 0.0 mm 0 W/m2
02:56 14.2 °C 14.1 °C 1009.0 hPa NNW 3.5 km/h 7.2 km/h 99% 0.0 mm 0 W/m2
03:01 14.4 °C 14.3 °C 1009.0 hPa NNW 2.6 km/h 9.7 km/h 99% 0.0 mm 0 W/m2
03:06 14.6 °C 14.4 °C 1009.0 hPa North 8.7 km/h 9.7 km/h 99% 0.0 mm 0 W/m2
03:11 14.6 °C 14.4 °C 1008.7 hPa North 6.1 km/h 11.1 km/h 99% 0.0 mm 0 W/m2
03:16 14.8 °C 14.7 °C 1008.4 hPa NNW 6.1 km/h 12.2 km/h 99% 0.0 mm 0 W/m2
03:21 14.8 °C 14.7 °C 1008.7 hPa NNW 6.1 km/h 12.2 km/h 99% 0.0 mm 0 W/m2
03:26 14.8 °C 14.7 °C 1008.7 hPa NNW 7.2 km/h 11.1 km/h 99% 0.0 mm 0 W/m2
03:36 14.7 °C 14.4 °C 1008.7 hPa NNW 6.1 km/h 12.2 km/h 98% 0.0 mm 0 W/m2
03:41 14.7 °C 14.2 °C 1008.4 hPa NNW 3.5 km/h 9.7 km/h 97% 0.0 mm 0 W/m2
03:46 14.7 °C 14.2 °C 1008.7 hPa NNW 8.7 km/h 13.4 km/h 97% 0.0 mm 0 W/m2
03:51 14.8 °C 14.3 °C 1008.4 hPa NNW 7.2 km/h 13.4 km/h 97% 0.0 mm 0 W/m2
03:56 15.0 °C 14.4 °C 1008.4 hPa NNW 9.7 km/h 14.8 km/h 96% 0.0 mm 0 W/m2
04:01 15.0 °C 14.4 °C 1008.4 hPa North 7.2 km/h 14.8 km/h 96% 0.0 mm 0 W/m2
04:06 15.0 °C 14.2 °C 1008.4 hPa North 6.1 km/h 14.8 km/h 95% 0.0 mm 0 W/m2
04:11 14.9 °C 14.3 °C 1008.4 hPa North 7.2 km/h 12.2 km/h 96% 0.0 mm 0 W/m2
04:16 14.9 °C 14.3 °C 1008.4 hPa NNW 8.7 km/h 13.4 km/h 96% 0.0 mm 0 W/m2
04:21 14.9 °C 14.3 °C 1008.4 hPa NNW 6.1 km/h 13.4 km/h 96% 0.0 mm 0 W/m2
04:26 14.9 °C 14.3 °C 1008.4 hPa NNW 5.0 km/h 13.4 km/h 96% 0.0 mm 0 W/m2
04:31 14.9 °C 14.3 °C 1008.4 hPa NNW 7.2 km/h 13.4 km/h 96% 0.0 mm 0 W/m2
04:36 14.9 °C 14.1 °C 1008.4 hPa NNW 5.0 km/h 13.4 km/h 95% 0.0 mm 0 W/m2
04:41 14.7 °C 13.9 °C 1008.0 hPa NNW 5.0 km/h 9.7 km/h 95% 0.0 mm 0 W/m2
04:46 14.6 °C 13.8 °C 1008.0 hPa NNW 6.1 km/h 8.7 km/h 95% 0.0 mm 0 W/m2
04:51 14.5 °C 13.7 °C 1008.0 hPa NNW 5.0 km/h 9.7 km/h 95% 0.0 mm 0 W/m2
04:56 14.5 °C 13.9 °C 1007.7 hPa NNW 3.5 km/h 9.7 km/h 96% 0.0 mm 0 W/m2
05:01 14.6 °C 14.0 °C 1008.0 hPa North 3.5 km/h 8.7 km/h 96% 0.0 mm 0 W/m2
05:06 14.4 °C 13.8 °C 1007.7 hPa NNW 5.0 km/h 8.7 km/h 96% 0.0 mm 0 W/m2
05:11 14.3 °C 13.7 °C 1007.7 hPa NNW 8.7 km/h 11.1 km/h 96% 0.0 mm 0 W/m2
05:16 14.3 °C 13.7 °C 1007.7 hPa NW 7.2 km/h 11.1 km/h 96% 0.0 mm 0 W/m2
05:21 14.2 °C 13.6 °C 1007.7 hPa NW 5.0 km/h 11.1 km/h 96% 0.0 mm 0 W/m2
05:26 14.2 °C 13.7 °C 1008.0 hPa NNW 6.1 km/h 11.1 km/h 97% 0.0 mm 0 W/m2
05:31 14.2 °C 13.7 °C 1007.7 hPa NW 3.5 km/h 11.1 km/h 97% 0.0 mm 0 W/m2
05:36 14.1 °C 13.6 °C 1007.7 hPa NW 5.0 km/h 11.1 km/h 97% 0.0 mm 0 W/m2
05:41 14.0 °C 13.6 °C 1008.0 hPa NW 6.1 km/h 9.7 km/h 97% 0.0 mm 0 W/m2
05:46 14.0 °C 13.6 °C 1008.0 hPa NW 8.7 km/h 12.2 km/h 97% 0.0 mm 0 W/m2
05:51 14.0 °C 13.6 °C 1008.0 hPa NNW 6.1 km/h 12.2 km/h 97% 0.0 mm 0 W/m2
05:56 14.0 °C 13.6 °C 1008.0 hPa NNW 6.1 km/h 11.1 km/h 97% 0.0 mm 0 W/m2
06:01 13.9 °C 13.6 °C 1008.0 hPa NNW 3.5 km/h 11.1 km/h 98% 0.0 mm 0 W/m2
06:06 13.8 °C 13.5 °C 1007.7 hPa North 2.6 km/h 9.7 km/h 98% 0.0 mm 0 W/m2
06:11 13.9 °C 13.6 °C 1007.7 hPa Calm   6.1 km/h 98% 0.0 mm 0 W/m2
06:16 13.9 °C 13.6 °C 1007.7 hPa Calm   5.0 km/h 98% 0.0 mm 0 W/m2
06:21 13.8 °C 13.5 °C 1007.7 hPa NW 1.1 km/h 6.1 km/h 98% 0.0 mm 0 W/m2
06:26 13.9 °C 13.4 °C 1007.7 hPa NW 2.6 km/h 6.1 km/h 97% 0.0 mm 0 W/m2
06:31 13.9 °C 13.4 °C 1007.7 hPa NW 3.5 km/h 7.2 km/h 97% 0.0 mm 0 W/m2
06:36 13.8 °C 13.3 °C 1007.3 hPa NNW 2.6 km/h 7.2 km/h 97% 0.0 mm 0 W/m2
06:41 13.7 °C 13.2 °C 1007.3 hPa NNW 3.5 km/h 7.2 km/h 97% 0.0 mm 0 W/m2
06:46 13.7 °C 13.2 °C 1007.7 hPa NW 8.7 km/h 11.1 km/h 97% 0.0 mm 0 W/m2
06:51 13.6 °C 13.3 °C 1007.7 hPa NW 6.1 km/h 11.1 km/h 98% 0.0 mm 0 W/m2
06:56 13.6 °C 13.3 °C 1007.7 hPa NW 5.0 km/h 11.1 km/h 98% 0.0 mm 0 W/m2
07:01 13.6 °C 13.3 °C 1007.7 hPa NNW 3.5 km/h 11.1 km/h 98% 0.0 mm 0 W/m2
07:06 13.6 °C 13.3 °C 1007.7 hPa North 5.0 km/h 12.2 km/h 98% 0.0 mm 3 W/m2
07:11 13.6 °C 13.3 °C 1007.7 hPa North 2.6 km/h 12.2 km/h 98% 0.0 mm 5 W/m2
07:16 13.6 °C 13.3 °C 1007.7 hPa Calm   8.7 km/h 98% 0.0 mm 8 W/m2
07:21 13.6 °C 13.3 °C 1007.7 hPa WSW 1.1 km/h 7.2 km/h 98% 0.0 mm 15 W/m2
07:26 13.6 °C 13.3 °C 1007.7 hPa Calm   6.1 km/h 98% 0.0 mm 21 W/m2
07:31 13.7 °C 13.4 °C 1007.7 hPa Calm   3.5 km/h 98% 0.0 mm 28 W/m2
07:36 13.7 °C 13.4 °C 1007.7 hPa Calm   3.5 km/h 98% 0.0 mm 40 W/m2
07:41 13.9 °C 13.6 °C 1007.7 hPa Calm     98% 0.0 mm 47 W/m2
07:46 14.0 °C 13.6 °C 1007.7 hPa Calm   1.1 km/h 97% 0.0 mm 50 W/m2
07:51 14.2 °C 13.7 °C 1007.7 hPa North 6.1 km/h 8.7 km/h 97% 0.0 mm 56 W/m2
07:56 14.4 °C 13.8 °C 1008.0 hPa NNW 3.5 km/h 11.1 km/h 96% 0.0 mm 93 W/m2
08:01 14.7 °C 14.1 °C 1007.7 hPa NW 1.1 km/h 11.1 km/h 96% 0.0 mm 69 W/m2
08:06 14.8 °C 14.0 °C 1008.0 hPa NW 5.0 km/h 7.2 km/h 95% 0.0 mm 78 W/m2
08:11 14.8 °C 13.8 °C 1008.0 hPa WNW 5.0 km/h 8.7 km/h 94% 0.0 mm 84 W/m2
08:16 14.8 °C 13.8 °C 1008.0 hPa NW 6.1 km/h 8.7 km/h 94% 0.0 mm 86 W/m2
08:21 14.9 °C 13.8 °C 1008.0 hPa North 3.5 km/h 8.7 km/h 93% 0.0 mm 93 W/m2
08:26 15.0 °C 13.7 °C 1008.4 hPa North 1.1 km/h 8.7 km/h 92% 0.0 mm 84 W/m2
08:31 15.1 °C 13.8 °C 1008.4 hPa NNW 7.2 km/h 8.7 km/h 92% 0.0 mm 80 W/m2
08:36 15.2 °C 13.6 °C 1008.0 hPa NNW 2.6 km/h 8.7 km/h 90% 0.0 mm 84 W/m2
08:41 15.4 °C 13.6 °C 1008.0 hPa Calm   6.1 km/h 89% 0.0 mm 89 W/m2
08:46 15.5 °C 13.6 °C 1008.0 hPa NNW 3.5 km/h 6.1 km/h 88% 0.0 mm 90 W/m2
08:51 15.7 °C 13.6 °C 1008.0 hPa NNW 2.6 km/h 6.1 km/h 87% 0.0 mm 94 W/m2
08:56 15.8 °C 13.7 °C 1008.4 hPa NW 2.6 km/h 6.1 km/h 87% 0.0 mm 97 W/m2
09:01 15.9 °C 13.6 °C 1008.0 hPa NW 3.5 km/h 8.7 km/h 86% 0.0 mm 96 W/m2
09:06 16.0 °C 13.5 °C 1008.4 hPa Calm   8.7 km/h 85% 0.0 mm 92 W/m2
09:11 16.0 °C 13.5 °C 1008.4 hPa NW 2.6 km/h 6.1 km/h 85% 0.0 mm 77 W/m2
09:16 15.8 °C 13.4 °C 1008.4 hPa NW 2.6 km/h 7.2 km/h 86% 0.0 mm 67 W/m2
09:21 15.8 °C 13.4 °C 1008.4 hPa Calm   7.2 km/h 86% 0.0 mm 69 W/m2
09:26 16.0 °C 13.5 °C 1008.0 hPa Calm   6.1 km/h 85% 0.0 mm 80 W/m2
09:31 16.1 °C 13.6 °C 1008.4 hPa NNW 1.1 km/h 5.0 km/h 85% 0.0 mm 87 W/m2
09:36 16.1 °C 13.6 °C 1008.4 hPa Calm   5.0 km/h 85% 0.0 mm 95 W/m2
09:41 16.3 °C 13.8 °C 1008.4 hPa North 6.1 km/h 8.7 km/h 85% 0.0 mm 97 W/m2
09:46 16.4 °C 13.9 °C 1008.4 hPa North 3.5 km/h 8.7 km/h 85% 0.0 mm 99 W/m2
09:51 16.5 °C 13.8 °C 1008.4 hPa Calm   8.7 km/h 84% 0.0 mm 107 W/m2
09:56 16.7 °C 14.0 °C 1008.4 hPa NW 1.1 km/h 8.7 km/h 84% 0.0 mm 112 W/m2
10:01 16.8 °C 14.1 °C 1008.4 hPa NW 3.5 km/h 7.2 km/h 84% 0.0 mm 119 W/m2
10:06 16.8 °C 14.1 °C 1008.7 hPa NW 2.6 km/h 7.2 km/h 84% 0.0 mm 128 W/m2
10:11 16.9 °C 14.2 °C 1008.7 hPa NW 3.5 km/h 7.2 km/h 84% 0.0 mm 134 W/m2
10:16 16.9 °C 14.2 °C 1008.7 hPa NW 5.0 km/h 11.1 km/h 84% 0.0 mm 135 W/m2
10:21 16.9 °C 14.2 °C 1008.4 hPa NNW 1.1 km/h 11.1 km/h 84% 0.0 mm 124 W/m2
10:26 17.1 °C 14.2 °C 1008.0 hPa Calm   9.7 km/h 83% 0.0 mm 136 W/m2
10:31 17.4 °C 14.5 °C 1008.4 hPa Calm   3.5 km/h 83% 0.0 mm 160 W/m2
10:36 17.7 °C 14.6 °C 1008.7 hPa NNW 3.5 km/h 8.7 km/h 82% 0.0 mm 178 W/m2
10:41 17.8 °C 14.5 °C 1008.7 hPa NNW 2.6 km/h 8.7 km/h 81% 0.0 mm 189 W/m2
10:45 18.1 °C 14.6 °C 1008.4 hPa Calm   8.7 km/h 80% 0.0 mm 194 W/m2
10:51 18.7 °C 15.2 °C 1008.4 hPa Calm   5.0 km/h 80% 0.0 mm 215 W/m2
10:56 19.2 °C 15.3 °C 1008.4 hPa Calm     78% 0.0 mm 238 W/m2
11:01 20.1 °C 15.1 °C 1008.0 hPa Calm   1.1 km/h 73% 0.0 mm 284 W/m2
11:06 20.4 °C 14.8 °C 1008.4 hPa Calm   3.5 km/h 70% 0.0 mm 252 W/m2
11:11 20.5 °C 14.6 °C 1008.4 hPa NNW 1.1 km/h 3.5 km/h 69% 0.0 mm 235 W/m2
11:16 20.4 °C 14.1 °C 1008.4 hPa NNW 3.5 km/h 7.2 km/h 67% 0.0 mm 263 W/m2
11:21 20.3 °C 14.0 °C 1008.7 hPa NNW 5.0 km/h 7.2 km/h 67% 0.0 mm 276 W/m2
11:26 20.4 °C 13.8 °C 1008.4 hPa NNW 2.6 km/h 7.2 km/h 66% 0.0 mm 249 W/m2
11:28 20.5 °C 13.9 °C 1008.0 hPa NNW 1.1 km/h 7.2 km/h 66% 0.0 mm 244 W/m2
11:33 20.7 °C 13.9 °C 1008.4 hPa Calm   6.1 km/h 65% 0.0 mm 230 W/m2
11:38 20.7 °C 13.7 °C 1008.4 hPa NNW 2.6 km/h 6.1 km/h 64% 0.0 mm 220 W/m2
11:43 20.6 °C 13.1 °C 1008.0 hPa NNW 1.1 km/h 6.1 km/h 62% 0.0 mm 242 W/m2
11:48 21.1 °C 13.3 °C 1008.0 hPa Calm   6.1 km/h 61% 0.0 mm 246 W/m2
11:53 21.4 °C 12.0 °C 1008.4 hPa Calm   5.0 km/h 55% 0.0 mm 264 W/m2
11:58 21.9 °C 12.2 °C 1008.4 hPa Calm   3.5 km/h 54% 0.0 mm 257 W/m2
12:03 22.4 °C 11.2 °C 1008.4 hPa NW 1.1 km/h 3.5 km/h 49% 0.0 mm 254 W/m2
12:08 22.4 °C 11.2 °C 1008.4 hPa Calm   3.5 km/h 49% 0.0 mm 270 W/m2
12:12 22.8 °C 11.8 °C 1008.0 hPa Calm   3.5 km/h 50% 0.0 mm 294 W/m2
12:17 23.0 °C 11.7 °C 1008.0 hPa Calm   3.5 km/h 49% 0.0 mm 318 W/m2
12:21 23.3 °C 11.7 °C 1008.0 hPa NNW 3.5 km/h 7.2 km/h 48% 0.0 mm 352 W/m2
12:26 23.1 °C 11.2 °C 1008.0 hPa Calm   7.2 km/h 47% 0.0 mm 363 W/m2
12:31 23.4 °C 11.8 °C 1008.0 hPa Calm   6.1 km/h 48% 0.0 mm 356 W/m2
12:36 23.8 °C 11.8 °C 1008.0 hPa NE 3.5 km/h 6.1 km/h 47% 0.0 mm 445 W/m2
12:41 23.9 °C 11.9 °C 1008.4 hPa Calm   7.2 km/h 47% 0.0 mm 429 W/m2
12:46 23.9 °C 11.6 °C 1008.0 hPa NE 2.6 km/h 7.2 km/h 46% 0.0 mm 592 W/m2
12:51 24.3 °C 11.6 °C 1008.0 hPa Calm   7.2 km/h 45% 0.0 mm 519 W/m2
12:56 25.3 °C 11.8 °C 1008.0 hPa East 2.6 km/h 7.2 km/h 43% 0.0 mm 776 W/m2
13:01 25.5 °C 12.0 °C 1008.0 hPa Calm   7.2 km/h 43% 0.0 mm 568 W/m2
13:06 25.4 °C 11.9 °C 1008.0 hPa ESE 3.5 km/h 7.2 km/h 43% 0.0 mm 405 W/m2
13:11 24.7 °C 11.7 °C 1008.0 hPa East 5.0 km/h 7.2 km/h 44% 0.0 mm 607 W/m2
13:16 24.8 °C 12.1 °C 1008.0 hPa Calm   7.2 km/h 45% 0.0 mm 630 W/m2
13:21 25.1 °C 12.0 °C 1007.7 hPa East 3.5 km/h 7.2 km/h 44% 0.0 mm 516 W/m2
13:26 25.1 °C 12.3 °C 1007.7 hPa ESE 6.1 km/h 7.2 km/h 45% 0.0 mm 657 W/m2
13:29 25.1 °C 12.0 °C 1008.0 hPa SE 5.0 km/h 8.7 km/h 44% 0.0 mm 551 W/m2
13:33 25.1 °C 12.3 °C 1008.0 hPa SSE 6.1 km/h 9.7 km/h 45% 0.0 mm 577 W/m2
13:38 24.8 °C 12.4 °C 1008.0 hPa South 2.6 km/h 11.1 km/h 46% 0.0 mm 471 W/m2
13:43 25.1 °C 12.3 °C 1008.0 hPa South 6.1 km/h 11.1 km/h 45% 0.0 mm 588 W/m2
13:48 25.0 °C 12.6 °C 1008.0 hPa SSE 2.6 km/h 9.7 km/h 46% 0.0 mm 695 W/m2
13:53 25.0 °C 12.9 °C 1007.7 hPa SE 2.6 km/h 9.7 km/h 47% 0.0 mm 725 W/m2
13:56 25.3 °C 13.8 °C 1008.0 hPa SSE 7.2 km/h 11.1 km/h 49% 0.0 mm 603 W/m2
14:02 24.5 °C 13.7 °C 1008.0 hPa SSE 5.0 km/h 12.2 km/h 51% 0.0 mm 797 W/m2
14:07 24.8 °C 14.9 °C 1008.0 hPa SSE 8.7 km/h 12.2 km/h 54% 0.0 mm 728 W/m2
14:12 24.6 °C 13.8 °C 1008.0 hPa SSE 7.2 km/h 12.2 km/h 51% 0.0 mm 558 W/m2
14:17 24.1 °C 13.9 °C 1008.0 hPa South 8.7 km/h 13.4 km/h 53% 0.0 mm 551 W/m2
14:19 23.9 °C 13.8 °C 1008.0 hPa South 9.7 km/h 13.4 km/h 53% 0.0 mm 552 W/m2
14:24 23.6 °C 14.3 °C 1008.0 hPa South 9.7 km/h 13.4 km/h 56% 0.0 mm 536 W/m2
14:29 23.5 °C 14.5 °C 1008.0 hPa SSE 12.2 km/h 15.8 km/h 57% 0.0 mm 470 W/m2
14:34 23.2 °C 14.2 °C 1008.0 hPa SSE 7.2 km/h 15.8 km/h 57% 0.0 mm 567 W/m2
14:39 23.0 °C 14.6 °C 1008.0 hPa SSE 11.1 km/h 17.2 km/h 59% 0.0 mm 477 W/m2
14:45 23.4 °C 15.2 °C 1008.0 hPa SSE 7.2 km/h 17.2 km/h 60% 0.0 mm 661 W/m2
14:50 23.8 °C 15.8 °C 1007.7 hPa SSE 7.2 km/h 15.8 km/h 61% 0.0 mm 479 W/m2
14:55 24.2 °C 14.9 °C 1008.0 hPa South 3.5 km/h 15.8 km/h 56% 0.0 mm 301 W/m2
15:00 24.0 °C 15.0 °C 1007.7 hPa SSE 6.1 km/h 13.4 km/h 57% 0.0 mm 323 W/m2
15:05 23.3 °C 14.8 °C 1008.0 hPa SSE 5.0 km/h 12.2 km/h 59% 0.0 mm 256 W/m2
15:10 22.9 °C 15.0 °C 1008.0 hPa SSE 5.0 km/h 12.2 km/h 61% 0.0 mm 259 W/m2
15:15 22.6 °C 14.4 °C 1008.0 hPa SSE 8.7 km/h 12.2 km/h 60% 0.0 mm 272 W/m2
15:20 22.4 °C 15.3 °C 1008.0 hPa South 7.2 km/h 14.8 km/h 64% 0.0 mm 265 W/m2
15:25 22.3 °C 15.4 °C 1007.7 hPa SSE 11.1 km/h 14.8 km/h 65% 0.0 mm 234 W/m2
15:30 22.0 °C 15.4 °C 1007.7 hPa SSE 9.7 km/h 15.8 km/h 66% 0.0 mm 267 W/m2
15:35 22.2 °C 15.6 °C 1007.3 hPa SSE 5.0 km/h 15.8 km/h 66% 0.0 mm 242 W/m2
15:40 22.2 °C 15.8 °C 1007.7 hPa SSE 3.5 km/h 14.8 km/h 67% 0.0 mm 265 W/m2
15:45 22.2 °C 15.6 °C 1007.7 hPa SSE 2.6 km/h 13.4 km/h 66% 0.0 mm 295 W/m2
15:50 22.3 °C 15.4 °C 1007.7 hPa SE 1.1 km/h 12.2 km/h 65% 0.0 mm 277 W/m2
15:55 22.5 °C 15.1 °C 1007.7 hPa SE 5.0 km/h 12.2 km/h 63% 0.0 mm 260 W/m2
16:00 22.3 °C 14.7 °C 1007.7 hPa SSE 6.1 km/h 13.4 km/h 62% 0.0 mm 251 W/m2
16:05 22.2 °C 14.6 °C 1007.7 hPa SSE 6.1 km/h 13.4 km/h 62% 0.0 mm 224 W/m2
16:10 22.3 °C 13.7 °C 1007.3 hPa SE 5.0 km/h 11.1 km/h 58% 0.0 mm 217 W/m2
16:15 22.4 °C 14.0 °C 1007.3 hPa Calm   11.1 km/h 59% 0.0 mm 214 W/m2
16:20 22.4 °C 14.3 °C 1007.3 hPa SSE 5.0 km/h 11.1 km/h 60% 0.0 mm 199 W/m2
16:25 22.3 °C 14.4 °C 1007.3 hPa SSE 3.5 km/h 11.1 km/h 61% 0.0 mm 186 W/m2
16:30 22.4 °C 14.5 °C 1007.3 hPa SSE 1.1 km/h 9.7 km/h 61% 0.0 mm 191 W/m2
16:35 22.4 °C 12.9 °C 1007.3 hPa SSE 3.5 km/h 8.7 km/h 55% 0.0 mm 195 W/m2
16:40 22.4 °C 13.2 °C 1007.3 hPa SE 5.0 km/h 7.2 km/h 56% 0.0 mm 184 W/m2
16:45 22.4 °C 12.7 °C 1007.3 hPa ESE 2.6 km/h 7.2 km/h 54% 0.0 mm 180 W/m2
16:50 22.4 °C 12.7 °C 1007.3 hPa ESE 5.0 km/h 9.7 km/h 54% 0.0 mm 172 W/m2
16:55 22.2 °C 12.7 °C 1007.3 hPa East 2.6 km/h 9.7 km/h 55% 0.0 mm 162 W/m2
17:00 22.3 °C 12.8 °C 1007.7 hPa Calm   9.7 km/h 55% 0.0 mm 160 W/m2
17:05 22.3 °C 12.8 °C 1007.3 hPa East 5.0 km/h 6.1 km/h 55% 0.0 mm 147 W/m2
17:10 22.1 °C 12.7 °C 1007.7 hPa Calm   7.2 km/h 55% 0.0 mm 131 W/m2
17:15 22.1 °C 12.4 °C 1007.7 hPa ENE 2.6 km/h 7.2 km/h 54% 0.0 mm 122 W/m2
17:20 22.1 °C 12.7 °C 1007.7 hPa East 3.5 km/h 5.0 km/h 55% 0.0 mm 124 W/m2
17:25 22.1 °C 13.2 °C 1007.7 hPa Calm   6.1 km/h 57% 0.0 mm 126 W/m2
17:30 22.2 °C 13.3 °C 1007.7 hPa Calm   6.1 km/h 57% 0.0 mm 124 W/m2
17:35 22.2 °C 13.3 °C 1007.7 hPa Calm   5.0 km/h 57% 0.0 mm 119 W/m2
17:40 22.2 °C 13.8 °C 1007.7 hPa Calm   5.0 km/h 59% 0.0 mm 113 W/m2
17:45 22.2 °C 13.8 °C 1007.7 hPa ESE 3.5 km/h 7.2 km/h 59% 0.0 mm 104 W/m2
17:50 21.9 °C 14.1 °C 1008.0 hPa Calm   7.2 km/h 61% 0.0 mm 92 W/m2
17:55 21.9 °C 14.3 °C 1007.7 hPa Calm   7.2 km/h 62% 0.0 mm 92 W/m2
18:00 21.9 °C 14.6 °C 1008.0 hPa Calm   3.5 km/h 63% 0.0 mm 98 W/m2
18:05 22.0 °C 14.4 °C 1007.7 hPa Calm   3.5 km/h 62% 0.0 mm 95 W/m2
18:10 22.0 °C 14.7 °C 1008.0 hPa Calm     63% 0.0 mm 87 W/m2
18:15 22.0 °C 14.9 °C 1007.7 hPa SSE 1.1 km/h 5.0 km/h 64% 0.0 mm 83 W/m2
18:20 21.9 °C 15.5 °C 1008.0 hPa Calm   6.1 km/h 67% 0.0 mm 76 W/m2
18:25 21.6 °C 15.4 °C 1007.7 hPa SSE 1.1 km/h 6.1 km/h 68% 0.0 mm 66 W/m2
18:30 21.5 °C 15.6 °C 1008.0 hPa Calm   5.0 km/h 69% 0.0 mm 57 W/m2
18:35 21.3 °C 15.2 °C 1008.0 hPa Calm   3.5 km/h 68% 0.0 mm 48 W/m2
18:40 21.3 °C 15.2 °C 1008.0 hPa Calm     68% 0.0 mm 40 W/m2
18:45 21.1 °C 15.0 °C 1007.7 hPa South 1.1 km/h 3.5 km/h 68% 0.0 mm 32 W/m2
18:50 20.9 °C 15.2 °C 1007.7 hPa Calm   5.0 km/h 70% 0.0 mm 29 W/m2
18:55 20.9 °C 15.4 °C 1007.7 hPa Calm   5.0 km/h 71% 0.0 mm 23 W/m2
19:00 20.7 °C 15.5 °C 1007.7 hPa Calm   5.0 km/h 72% 0.0 mm 18 W/m2
19:05 20.6 °C 15.4 °C 1007.7 hPa Calm   5.0 km/h 72% 0.0 mm 12 W/m2
19:10 20.4 °C 15.2 °C 1008.0 hPa Calm   5.0 km/h 72% 0.0 mm 7 W/m2
19:15 20.4 °C 15.2 °C 1007.7 hPa Calm   5.0 km/h 72% 0.0 mm 4 W/m2
19:20 20.3 °C 14.9 °C 1008.0 hPa Calm   6.1 km/h 71% 0.0 mm 4 W/m2
19:25 20.2 °C 14.6 °C 1008.0 hPa East 1.1 km/h 6.1 km/h 70% 0.0 mm 4 W/m2
19:30 20.3 °C 14.2 °C 1008.4 hPa Calm   8.7 km/h 68% 0.0 mm 1 W/m2
19:35 20.3 °C 14.2 °C 1008.4 hPa Calm   8.7 km/h 68% 0.0 mm 0 W/m2
19:40 20.2 °C 14.3 °C 1008.4 hPa Calm   2.6 km/h 69% 0.0 mm 0 W/m2
19:45 20.1 °C 14.2 °C 1008.7 hPa Calm   2.6 km/h 69% 0.0 mm 0 W/m2
19:50 20.0 °C 14.4 °C 1008.4 hPa Calm   1.1 km/h 70% 0.0 mm 0 W/m2
19:55 20.0 °C 14.6 °C 1008.7 hPa Calm   1.1 km/h 71% 0.0 mm 0 W/m2
20:00 20.0 °C 14.4 °C 1008.7 hPa Calm   3.5 km/h 70% 0.0 mm 0 W/m2
20:05 20.1 °C 14.9 °C 1008.7 hPa Calm   3.5 km/h 72% 0.0 mm 0 W/m2
20:10 20.0 °C 14.8 °C 1008.7 hPa SSW 2.6 km/h 6.1 km/h 72% 0.0 mm 0 W/m2
20:15 20.0 °C 14.4 °C 1009.0 hPa SSW 5.0 km/h 8.7 km/h 70% 0.0 mm 0 W/m2
20:20 20.1 °C 15.6 °C 1009.0 hPa Calm   8.7 km/h 75% 0.0 mm 0 W/m2
20:25 20.1 °C 16.3 °C 1009.4 hPa South 2.6 km/h 6.1 km/h 79% 0.3 mm 0 W/m2
20:30 19.9 °C 17.3 °C 1009.7 hPa South 7.2 km/h 11.1 km/h 85% 0.3 mm 0 W/m2
20:35 19.7 °C 17.5 °C 1009.7 hPa SSW 8.7 km/h 14.8 km/h 87% 0.3 mm 0 W/m2
20:40 19.7 °C 17.7 °C 1010.0 hPa SW 15.8 km/h 28.0 km/h 88% 0.3 mm 0 W/m2
20:46 18.7 °C 16.5 °C 1010.4 hPa SSW 31.7 km/h 43.9 km/h 87% 0.3 mm 0 W/m2
20:51 17.5 °C 15.8 °C 1010.7 hPa SSW 33.1 km/h 50.0 km/h 90% 0.3 mm 0 W/m2
20:56 17.2 °C 15.9 °C 1010.4 hPa South 28.0 km/h 50.0 km/h 92% 0.3 mm 0 W/m2
21:01 17.1 °C 15.9 °C 1010.7 hPa SSW 20.9 km/h 43.9 km/h 93% 0.5 mm 0 W/m2
21:06 16.9 °C 15.9 °C 1011.1 hPa SSW 29.4 km/h 42.8 km/h 94% 0.5 mm 0 W/m2
21:11 16.8 °C 15.8 °C 1011.1 hPa SSW 30.6 km/h 50.0 km/h 94% 0.5 mm 0 W/m2
21:16 16.8 °C 15.7 °C 1011.4 hPa SSW 28.0 km/h 50.0 km/h 93% 0.5 mm 0 W/m2
21:21 16.7 °C 15.6 °C 1011.4 hPa SSW 39.3 km/h 47.9 km/h 93% 1.0 mm 0 W/m2
21:26 16.7 °C 15.6 °C 1011.7 hPa SSW 25.6 km/h 48.9 km/h 93% 0.5 mm 0 W/m2
21:31 16.5 °C 15.4 °C 1011.7 hPa SSW 28.0 km/h 52.6 km/h 93% 0.5 mm 0 W/m2
21:36 16.5 °C 15.4 °C 1012.1 hPa SSW 23.3 km/h 52.6 km/h 93% 0.5 mm 0 W/m2
21:40 16.5 °C 15.6 °C 1012.1 hPa SSW 31.7 km/h 45.4 km/h 94% 0.5 mm 0 W/m2
21:45 16.4 °C 15.4 °C 1012.1 hPa SSW 21.9 km/h 45.4 km/h 94% 1.0 mm 0 W/m2
21:50 16.2 °C 15.2 °C 1012.1 hPa SSW 28.0 km/h 50.0 km/h 94% 1.3 mm 0 W/m2
21:55 16.1 °C 15.2 °C 1012.4 hPa SSW 28.0 km/h 50.0 km/h 94% 1.3 mm 0 W/m2
22:00 16.1 °C 15.3 °C 1012.4 hPa SSW 28.0 km/h 50.0 km/h 95% 1.3 mm 0 W/m2
22:05 16.1 °C 15.3 °C 1012.4 hPa SSW 30.6 km/h 43.9 km/h 95% 1.5 mm 0 W/m2
22:10 16.1 °C 15.3 °C 1012.1 hPa SSW 36.7 km/h 42.8 km/h 95% 1.5 mm 0 W/m2
22:15 16.0 °C 15.2 °C 1012.4 hPa SSW 23.3 km/h 45.4 km/h 95% 1.8 mm 0 W/m2
22:20 15.9 °C 15.4 °C 1012.4 hPa SSW 29.4 km/h 45.4 km/h 97% 1.8 mm 0 W/m2
22:25 15.8 °C 15.2 °C 1012.8 hPa SSW 25.6 km/h 47.9 km/h 96% 2.0 mm 0 W/m2
22:30 15.8 °C 15.3 °C 1012.8 hPa SSW 28.0 km/h 47.9 km/h 97% 2.8 mm 0 W/m2
22:35 15.6 °C 15.1 °C 1012.4 hPa SW 23.3 km/h 40.4 km/h 97% 3.3 mm 0 W/m2
22:40 15.6 °C 15.3 °C 1012.8 hPa SW 31.7 km/h 40.4 km/h 98% 3.8 mm 0 W/m2
22:45 15.6 °C 15.3 °C 1012.4 hPa SW 20.9 km/h 50.0 km/h 98% 4.3 mm 0 W/m2
22:50 15.5 °C 15.2 °C 1012.8 hPa SW 23.3 km/h 50.0 km/h 98% 4.3 mm 0 W/m2
22:55 15.5 °C 15.1 °C 1012.8 hPa SW 29.4 km/h 46.5 km/h 97% 4.8 mm 0 W/m2
23:00 15.5 °C 15.2 °C 1012.8 hPa SW 24.5 km/h 46.5 km/h 98% 5.1 mm 0 W/m2
23:05 15.4 °C 14.9 °C 1012.8 hPa SW 25.6 km/h 46.5 km/h 97% 5.1 mm 0 W/m2
23:10 15.3 °C 15.0 °C 1012.8 hPa SW 40.4 km/h 50.0 km/h 98% 5.6 mm 0 W/m2
23:15 15.3 °C 15.0 °C 1013.1 hPa WSW 25.6 km/h 50.0 km/h 98% 6.1 mm 0 W/m2
23:20 15.0 °C 14.7 °C 1013.1 hPa WSW 17.2 km/h 50.0 km/h 98% 6.9 mm 0 W/m2
23:25 15.0 °C 14.8 °C 1013.4 hPa SW 21.9 km/h 34.3 km/h 99% 6.9 mm 0 W/m2
23:30 14.9 °C 14.8 °C 1013.4 hPa WSW 20.9 km/h 34.3 km/h 99% 6.6 mm 0 W/m2
23:35 14.9 °C 14.8 °C 1013.1 hPa WSW 19.5 km/h 41.7 km/h 99% 6.6 mm 0 W/m2
23:40 14.5 °C 14.3 °C 1013.4 hPa West 20.9 km/h 41.7 km/h 99% 7.1 mm 0 W/m2
23:45 14.4 °C 14.3 °C 1013.4 hPa West 19.5 km/h 36.7 km/h 99% 7.6 mm 0 W/m2
23:50 14.6 °C 14.4 °C 1013.4 hPa SW 21.9 km/h 40.4 km/h 99% 8.1 mm 0 W/m2
23:55 14.6 °C 14.4 °C 1013.4 hPa SSW 17.2 km/h 40.4 km/h 99% 8.1 mm 0 W/m2
Northern Hawkes Bay. New Zealand Historic Data
Compliments of Weather Underground - 2 mb